createdAt,value
2022-09-20T00:01:36.818Z,0.80
2022-09-20T00:04:04.425Z,1.00
2022-09-20T00:06:31.995Z,0.63
2022-09-20T00:09:00.558Z,0.80
2022-09-20T00:11:28.757Z,0.90
2022-09-20T00:13:56.757Z,0.83
2022-09-20T00:16:33.520Z,0.80
2022-09-20T00:24:05.158Z,0.80
2022-09-20T00:26:31.516Z,0.87
2022-09-20T00:32:41.330Z,0.70
2022-09-20T00:35:09.924Z,0.87
2022-09-20T00:37:38.209Z,0.90
2022-09-20T00:43:55.715Z,1.00
2022-09-20T00:53:41.819Z,1.07
2022-09-20T00:56:13.119Z,0.90
2022-09-20T00:58:44.209Z,1.00
2022-09-20T01:01:11.218Z,1.10
2022-09-20T01:03:39.553Z,1.00
2022-09-20T01:06:13.298Z,0.97
2022-09-20T01:16:47.352Z,0.70
2022-09-20T01:19:19.149Z,0.87
2022-09-20T01:21:47.021Z,0.83
2022-09-20T01:24:22.002Z,0.70
2022-09-20T01:27:13.310Z,1.00
2022-09-20T01:30:03.241Z,0.90
2022-09-20T01:32:42.809Z,0.80
2022-09-20T01:40:19.327Z,0.80
2022-09-20T01:45:50.093Z,0.90
2022-09-20T01:48:26.937Z,0.93
2022-09-20T01:51:27.862Z,1.03
2022-09-20T01:54:20.301Z,0.93
2022-09-20T02:11:37.509Z,0.83
2022-09-20T02:14:16.736Z,0.67
2022-09-20T02:16:52.092Z,0.93
2022-09-20T02:19:33.959Z,0.80
2022-09-20T02:22:22.194Z,0.80
2022-09-20T02:24:58.318Z,0.83
2022-09-20T02:27:37.088Z,0.83
2022-09-20T02:30:16.085Z,0.70
2022-09-20T02:33:09.824Z,1.17
2022-09-20T02:35:49.712Z,0.90
2022-09-20T02:38:27.081Z,0.90
2022-09-20T02:41:14.265Z,1.00
2022-09-20T02:43:53.057Z,0.90
2022-09-20T02:46:28.656Z,1.00
2022-09-20T02:49:07.443Z,0.90
2022-09-20T02:54:28.959Z,0.90
2022-09-20T02:57:03.580Z,0.83
2022-09-20T02:59:41.452Z,1.00
2022-09-20T03:02:23.719Z,1.00
2022-09-20T03:05:04.742Z,0.93
2022-09-20T03:07:38.308Z,1.00
2022-09-20T03:14:14.366Z,1.50
2022-09-20T03:16:57.431Z,1.30
2022-09-20T03:19:36.847Z,1.33
2022-09-20T03:22:15.857Z,1.20
2022-09-20T03:24:54.689Z,0.80
2022-09-20T03:27:31.949Z,1.33
2022-09-20T03:30:18.128Z,1.17
2022-09-20T03:32:59.970Z,1.03
2022-09-20T03:35:41.183Z,1.23
2022-09-20T03:38:33.705Z,0.90
2022-09-20T03:41:26.097Z,1.20
2022-09-20T03:44:10.007Z,1.40
2022-09-20T03:46:45.248Z,1.33
2022-09-20T03:49:52.715Z,1.07
2022-09-20T03:52:34.807Z,1.70
2022-09-20T03:55:40.125Z,1.20
2022-09-20T03:58:23.289Z,0.93
2022-09-20T04:01:04.763Z,1.27
2022-09-20T04:03:48.239Z,0.90
2022-09-20T04:06:41.671Z,1.40
2022-09-20T04:09:41.610Z,1.30
2022-09-20T04:12:24.884Z,1.47
2022-09-20T04:15:04.417Z,0.97
2022-09-20T04:17:45.537Z,1.30
2022-09-20T04:20:21.799Z,1.27
2022-09-20T04:22:56.098Z,1.27
2022-09-20T04:25:51.229Z,0.97
2022-09-20T04:28:29.120Z,1.27
2022-09-20T04:31:20.829Z,1.00
2022-09-20T04:36:39.148Z,1.20
2022-09-20T04:39:23.099Z,1.33
2022-09-20T04:42:45.058Z,1.40
2022-09-20T04:45:58.993Z,1.30
2022-09-20T04:48:57.503Z,1.23
2022-09-20T04:51:54.366Z,1.30
2022-09-20T04:54:55.032Z,1.30
2022-09-20T04:57:57.859Z,1.40
2022-09-20T05:00:33.592Z,1.30
2022-09-20T05:03:32.578Z,1.57
2022-09-20T05:06:54.057Z,1.50
2022-09-20T05:09:57.349Z,1.60
2022-09-20T05:12:58.972Z,1.53
2022-09-20T05:15:39.497Z,1.50
2022-09-20T05:18:44.018Z,1.50
2022-09-20T05:21:35.415Z,1.47
2022-09-20T05:24:18.506Z,1.40
2022-09-20T05:27:02.463Z,1.67
2022-09-20T05:29:35.127Z,1.83
2022-09-20T05:32:10.523Z,1.73
2022-09-20T05:34:45.590Z,1.30
2022-09-20T05:37:25.354Z,1.67
2022-09-20T05:40:00.665Z,1.50
2022-09-20T05:42:40.751Z,1.60
2022-09-20T05:45:26.414Z,1.97
2022-09-20T05:48:00.546Z,1.90
2022-09-20T05:50:44.709Z,1.80
2022-09-20T05:53:43.222Z,1.50
2022-09-20T05:56:19.598Z,1.90
2022-09-20T05:59:14.104Z,2.10
2022-09-20T06:02:00.982Z,2.15
2022-09-20T06:04:35.774Z,1.83
2022-09-20T06:07:10.102Z,1.90
2022-09-20T06:09:51.555Z,1.70
2022-09-20T06:12:37.481Z,2.13
2022-09-20T06:15:18.341Z,2.13
2022-09-20T06:17:56.455Z,1.80
2022-09-20T06:20:30.135Z,2.10
2022-09-20T06:23:01.936Z,2.00
2022-09-20T06:25:35.481Z,1.97
2022-09-20T06:28:09.603Z,2.00
2022-09-20T06:30:43.689Z,1.90
2022-09-20T06:33:17.605Z,1.87
2022-09-20T06:35:50.494Z,2.43
2022-09-20T06:38:51.923Z,2.37
2022-09-20T06:41:30.500Z,2.03
2022-09-20T06:43:59.625Z,1.73
2022-09-20T06:46:29.844Z,1.63
2022-09-20T06:48:58.293Z,1.97
2022-09-20T06:51:28.775Z,2.10
2022-09-20T06:53:58.012Z,2.67
2022-09-20T06:56:27.742Z,2.83
2022-09-20T06:58:55.565Z,2.63
2022-09-20T07:01:30.074Z,2.10
2022-09-20T07:04:02.916Z,2.13
2022-09-20T07:06:30.926Z,2.23
2022-09-20T07:08:58.544Z,2.07
2022-09-20T07:11:26.738Z,2.53
2022-09-20T07:13:56.224Z,1.97
2022-09-20T07:16:23.923Z,2.07
2022-09-20T07:18:53.010Z,2.30
2022-09-20T07:21:22.749Z,1.77
2022-09-20T07:23:51.303Z,2.07
2022-09-20T07:26:21.439Z,2.00
2022-09-20T07:28:49.846Z,2.20
2022-09-20T07:31:18.279Z,2.23
2022-09-20T07:33:46.051Z,2.20
2022-09-20T07:36:14.514Z,2.57
2022-09-20T07:38:44.157Z,2.30
2022-09-20T07:41:11.728Z,2.40
2022-09-20T07:43:40.056Z,2.07
2022-09-20T07:46:07.728Z,2.27
2022-09-20T07:48:37.065Z,2.40
2022-09-20T07:51:08.810Z,2.27
2022-09-20T07:53:37.577Z,2.10
2022-09-20T07:56:08.529Z,2.00
2022-09-20T07:58:37.252Z,2.20
2022-09-20T08:01:06.847Z,2.57
2022-09-20T08:03:35.679Z,2.13
2022-09-20T08:06:04.970Z,2.10
2022-09-20T08:08:33.703Z,2.67
2022-09-20T08:11:07.227Z,2.63
2022-09-20T08:16:25.588Z,2.40
2022-09-20T08:18:55.653Z,2.60
2022-09-20T08:21:23.581Z,3.03
2022-09-20T08:23:51.911Z,2.20
2022-09-20T08:26:23.449Z,3.10
2022-09-20T08:28:53.653Z,2.50
2022-09-20T08:31:23.817Z,2.80
2022-09-20T08:33:52.726Z,2.63
2022-09-20T08:36:22.750Z,3.13
2022-09-20T08:41:43.739Z,3.93
2022-09-20T08:44:18.462Z,3.30
2022-09-20T08:46:49.409Z,3.13
2022-09-20T08:49:25.975Z,4.03
2022-09-20T08:51:54.757Z,3.93
2022-09-20T08:54:24.137Z,3.90
2022-09-20T08:56:53.969Z,3.40
2022-09-20T08:59:25.904Z,4.37
2022-09-20T09:01:54.609Z,4.20
2022-09-20T09:04:24.309Z,3.50
2022-09-20T09:06:53.699Z,4.10
2022-09-20T09:09:24.339Z,4.13
2022-09-20T09:11:55.089Z,3.97
2022-09-20T09:14:44.441Z,3.63
2022-09-20T09:17:13.582Z,3.63
2022-09-20T09:19:47.318Z,3.53
2022-09-20T09:22:22.161Z,3.70
2022-09-20T09:25:24.099Z,4.17
2022-09-20T09:27:58.344Z,3.43
2022-09-20T09:30:28.943Z,3.80
2022-09-20T09:33:18.815Z,4.20
2022-09-20T09:35:54.136Z,3.90
2022-09-20T09:38:24.774Z,4.20
2022-09-20T09:40:54.834Z,4.20
2022-09-20T09:43:29.106Z,3.53
2022-09-20T09:45:57.950Z,4.20
2022-09-20T09:48:28.077Z,3.50
2022-09-20T09:51:10.103Z,3.50
2022-09-20T09:53:39.048Z,2.87
2022-09-20T09:56:21.939Z,2.63
2022-09-20T09:59:12.444Z,2.97
2022-09-20T10:01:49.355Z,2.20
2022-09-20T10:04:23.243Z,2.70
2022-09-20T10:07:00.300Z,2.70
2022-09-20T10:09:44.774Z,2.20
2022-09-20T10:12:28.226Z,2.33
2022-09-20T10:15:08.083Z,2.30
2022-09-20T10:17:52.812Z,2.20
2022-09-20T10:20:39.191Z,2.33
2022-09-20T10:23:51.561Z,2.37
2022-09-20T10:26:26.144Z,2.23
2022-09-20T10:29:03.082Z,2.50
2022-09-20T10:31:45.901Z,2.40
2022-09-20T10:34:29.677Z,2.00
2022-09-20T10:36:59.471Z,2.20
2022-09-20T10:39:32.353Z,1.90
2022-09-20T10:42:26.396Z,1.97
2022-09-20T10:45:08.804Z,2.30
2022-09-20T10:47:51.045Z,2.03
2022-09-20T10:50:26.109Z,1.93
2022-09-20T10:53:10.709Z,2.10
2022-09-20T10:55:46.468Z,1.80
2022-09-20T10:58:45.267Z,1.97
2022-09-20T11:01:22.099Z,1.93
2022-09-20T11:04:15.751Z,2.10
2022-09-20T11:06:51.923Z,2.53
2022-09-20T11:09:24.372Z,2.30
2022-09-20T11:11:57.280Z,2.23
2022-09-20T11:14:32.608Z,1.90
2022-09-20T11:17:08.448Z,2.30
2022-09-20T11:19:48.477Z,1.90
2022-09-20T11:22:22.030Z,2.13
2022-09-20T11:24:56.072Z,2.13
2022-09-20T11:27:29.597Z,2.10
2022-09-20T11:30:03.081Z,1.80
2022-09-20T11:32:36.948Z,1.67
2022-09-20T11:35:22.814Z,1.53
2022-09-20T11:37:58.588Z,1.60
2022-09-20T11:40:29.662Z,2.10
2022-09-20T11:43:00.672Z,1.90
2022-09-20T11:45:30.789Z,1.50
2022-09-20T11:48:05.225Z,1.83
2022-09-20T11:51:05.366Z,1.13
2022-09-20T11:53:45.639Z,1.40
2022-09-20T11:56:18.927Z,1.20
2022-09-20T11:58:49.052Z,1.30
2022-09-20T12:01:28.273Z,1.50
2022-09-20T12:04:20.568Z,1.30
2022-09-20T12:06:48.915Z,1.30
2022-09-20T12:09:26.502Z,1.67
2022-09-20T12:11:54.700Z,1.33
2022-09-20T12:14:27.366Z,1.50
2022-09-20T12:16:56.934Z,1.53
2022-09-20T12:19:38.917Z,1.57
2022-09-20T12:22:29.655Z,1.23
2022-09-20T12:25:34.520Z,1.80
2022-09-20T12:28:02.739Z,1.30
2022-09-20T12:30:32.329Z,1.40
2022-09-20T12:33:01.122Z,1.57
2022-09-20T12:36:02.811Z,1.73
2022-09-20T12:38:38.956Z,1.70
2022-09-20T12:41:14.001Z,1.57
2022-09-20T12:44:01.866Z,1.40
2022-09-20T12:46:43.483Z,1.90
2022-09-20T12:50:00.461Z,1.30
2022-09-20T12:52:57.450Z,1.43
2022-09-20T12:55:41.221Z,1.70
2022-09-20T12:58:27.463Z,2.90
2022-09-20T13:01:30.801Z,1.50
2022-09-20T13:04:32.277Z,1.93
2022-09-20T13:07:33.148Z,1.63
2022-09-20T13:10:06.939Z,2.00
2022-09-20T13:12:42.371Z,1.53
2022-09-20T13:15:19.616Z,1.40
2022-09-20T13:17:51.979Z,1.20
2022-09-20T13:20:23.546Z,1.63
2022-09-20T13:22:57.048Z,1.80
2022-09-20T13:25:28.505Z,1.43
2022-09-20T13:28:06.690Z,1.50
2022-09-20T13:30:35.193Z,1.50
2022-09-20T13:33:23.029Z,1.30
2022-09-20T13:35:54.372Z,1.40
2022-09-20T13:38:24.853Z,1.83
2022-09-20T13:40:55.084Z,1.93
2022-09-20T13:43:29.183Z,1.27
2022-09-20T13:45:58.522Z,1.37
2022-09-20T13:48:27.725Z,1.37
2022-09-20T13:50:56.435Z,1.33
2022-09-20T13:53:40.642Z,1.17
2022-09-20T13:56:12.439Z,1.70
2022-09-20T13:58:41.902Z,1.20
2022-09-20T14:01:23.588Z,1.63
2022-09-20T14:03:51.246Z,1.43
2022-09-20T14:06:18.874Z,1.40
2022-09-20T14:08:49.622Z,1.57
2022-09-20T14:11:19.767Z,1.83
2022-09-20T14:13:51.813Z,1.73
2022-09-20T14:16:21.890Z,1.07
2022-09-20T14:18:50.537Z,1.57
2022-09-20T14:21:22.809Z,1.47
2022-09-20T14:23:52.249Z,1.40
2022-09-20T14:26:25.691Z,1.87
2022-09-20T14:28:55.074Z,1.40
2022-09-20T14:31:25.609Z,1.67
2022-09-20T14:33:56.165Z,1.47
2022-09-20T14:36:25.518Z,1.03
2022-09-20T14:38:56.437Z,1.30
2022-09-20T14:41:31.047Z,1.40
2022-09-20T14:44:02.596Z,1.30
2022-09-20T14:46:33.851Z,1.40
2022-09-20T14:49:22.002Z,1.20
2022-09-20T14:51:49.983Z,1.40
2022-09-20T14:54:27.924Z,1.30
2022-09-20T14:56:57.594Z,1.50
2022-09-20T14:59:28.071Z,1.20
2022-09-20T15:02:02.035Z,1.57
2022-09-20T15:04:31.639Z,1.30
2022-09-20T15:07:02.960Z,1.53
2022-09-20T15:09:30.978Z,1.70
2022-09-20T15:12:06.448Z,1.60
2022-09-20T15:14:37.708Z,1.20
2022-09-20T15:17:06.480Z,1.20
2022-09-20T15:19:34.372Z,1.10
2022-09-20T15:22:05.150Z,1.13
2022-09-20T15:24:32.829Z,1.17
2022-09-20T15:27:00.410Z,1.20
2022-09-20T15:29:28.167Z,1.20
2022-09-20T15:31:57.736Z,1.47
2022-09-20T15:34:25.357Z,1.00
2022-09-20T15:36:54.116Z,1.23
2022-09-20T15:39:22.262Z,1.30
2022-09-20T15:41:53.051Z,1.00
2022-09-20T15:44:20.661Z,1.40
2022-09-20T15:46:48.932Z,1.10
2022-09-20T15:49:17.956Z,1.10
2022-09-20T15:51:46.283Z,1.20
2022-09-20T15:54:15.500Z,1.20
2022-09-20T15:56:43.451Z,1.30
2022-09-20T15:59:14.591Z,1.27
2022-09-20T16:01:43.767Z,1.10
2022-09-20T16:04:13.424Z,1.30
2022-09-20T16:06:44.489Z,1.77
2022-09-20T16:09:12.068Z,1.10
2022-09-20T16:11:40.391Z,1.33
2022-09-20T16:14:08.158Z,1.80
2022-09-20T16:16:40.135Z,1.30
2022-09-20T16:19:20.808Z,1.17
2022-09-20T16:21:57.589Z,1.20
2022-09-20T16:24:28.025Z,1.13
2022-09-20T16:26:55.890Z,1.50
2022-09-20T16:29:25.064Z,1.57
2022-09-20T16:31:54.658Z,1.20
2022-09-20T16:34:29.562Z,1.27
2022-09-20T16:37:00.436Z,2.60
2022-09-20T16:39:29.556Z,1.30
2022-09-20T16:41:59.012Z,1.97
2022-09-20T16:44:26.644Z,1.83
2022-09-20T16:46:54.274Z,1.30
2022-09-20T16:49:22.023Z,1.40
2022-09-20T16:51:49.633Z,1.10
2022-09-20T16:54:19.572Z,1.10
2022-09-20T16:56:49.125Z,1.20
2022-09-20T16:59:18.508Z,1.45
2022-09-20T17:04:43.600Z,3.43
2022-09-20T17:07:11.592Z,2.97
2022-09-20T17:09:43.556Z,1.87
2022-09-20T17:12:11.410Z,2.40
2022-09-20T17:14:48.710Z,2.60
2022-09-20T17:17:17.012Z,1.80
2022-09-20T17:19:44.759Z,1.60
2022-09-20T17:22:13.464Z,1.33
2022-09-20T17:24:42.658Z,2.10
2022-09-20T17:27:10.796Z,2.23
2022-09-20T17:29:38.438Z,2.40
2022-09-20T17:32:06.374Z,2.20
2022-09-20T17:34:34.067Z,1.73
2022-09-20T17:37:03.368Z,2.00
2022-09-20T17:39:31.235Z,2.40
2022-09-20T17:42:01.382Z,3.70
2022-09-20T17:44:29.083Z,3.50
2022-09-20T17:46:56.784Z,2.63
2022-09-20T17:49:26.725Z,2.47
2022-09-20T17:51:56.032Z,2.40
2022-09-20T17:54:24.851Z,2.37
2022-09-20T17:56:55.719Z,1.90
2022-09-20T17:59:25.632Z,2.43
2022-09-20T18:01:54.298Z,2.17
2022-09-20T18:04:24.219Z,2.40
2022-09-20T18:06:53.187Z,2.07
2022-09-20T18:09:22.526Z,2.00
2022-09-20T18:11:51.668Z,2.30
2022-09-20T18:14:21.098Z,2.00
2022-09-20T18:16:52.479Z,2.00
2022-09-20T18:19:22.596Z,3.50
2022-09-20T18:21:50.600Z,5.80
2022-09-20T18:24:18.408Z,5.37
2022-09-20T18:26:46.192Z,4.73
2022-09-20T18:29:17.383Z,3.67
2022-09-20T18:31:50.662Z,3.30
2022-09-20T18:34:20.017Z,2.50
2022-09-20T18:36:53.032Z,2.17
2022-09-20T18:39:24.862Z,2.57
2022-09-20T18:41:53.460Z,2.43
2022-09-20T18:44:22.106Z,2.80
2022-09-20T18:46:55.037Z,2.57
2022-09-20T18:49:25.410Z,2.70
2022-09-20T18:51:53.017Z,2.53
2022-09-20T18:54:20.675Z,2.40
2022-09-20T18:56:50.094Z,2.30
2022-09-20T18:59:19.577Z,2.23
2022-09-20T19:02:21.854Z,3.07
2022-09-20T19:05:13.957Z,3.30
2022-09-20T19:07:54.696Z,3.40
2022-09-20T19:10:27.877Z,3.10
2022-09-20T19:13:04.697Z,2.23
2022-09-20T19:15:52.322Z,2.40
2022-09-20T19:18:36.486Z,1.80
2022-09-20T19:21:17.911Z,1.80
2022-09-20T19:24:01.106Z,2.00
2022-09-20T19:26:37.961Z,2.60
2022-09-20T19:29:16.707Z,2.33
2022-09-20T19:31:44.858Z,2.57
2022-09-20T19:34:19.717Z,2.63
2022-09-20T19:36:58.473Z,2.77
2022-09-20T19:39:37.987Z,2.40
2022-09-20T19:42:16.456Z,3.80
2022-09-20T19:44:53.823Z,2.70
2022-09-20T19:47:30.784Z,2.30
2022-09-20T19:50:05.187Z,1.40
2022-09-20T19:52:33.285Z,1.60
2022-09-20T19:55:01.831Z,1.50
2022-09-20T19:57:36.065Z,1.23
2022-09-20T20:00:09.282Z,1.33
2022-09-20T20:02:39.782Z,1.70
2022-09-20T20:05:12.610Z,1.40
2022-09-20T20:07:47.286Z,1.83
2022-09-20T20:10:23.486Z,1.30
2022-09-20T20:12:56.583Z,1.20
2022-09-20T20:15:38.846Z,1.17
2022-09-20T20:18:16.802Z,1.10
2022-09-20T20:20:49.624Z,1.23
2022-09-20T20:23:45.635Z,1.43
2022-09-20T20:26:20.180Z,1.40
2022-09-20T20:28:48.003Z,1.30
2022-09-20T20:31:16.337Z,1.40
2022-09-20T20:33:45.555Z,1.30
2022-09-20T20:36:14.550Z,1.40
2022-09-20T20:38:49.399Z,1.07
2022-09-20T20:41:19.335Z,1.70
2022-09-20T20:43:48.358Z,1.37
2022-09-20T20:46:19.514Z,1.53
2022-09-20T20:48:48.472Z,1.90
2022-09-20T20:51:19.048Z,2.10
2022-09-20T20:53:48.847Z,1.73
2022-09-20T20:56:19.010Z,2.03
2022-09-20T20:58:47.751Z,1.70
2022-09-20T21:01:17.732Z,1.50
2022-09-20T21:03:48.589Z,1.63
2022-09-20T21:06:18.131Z,1.73
2022-09-20T21:08:49.567Z,2.10
2022-09-20T21:11:20.434Z,1.90
2022-09-20T21:13:48.890Z,2.20
2022-09-20T21:16:18.297Z,1.83
2022-09-20T21:18:48.451Z,2.03
2022-09-20T21:21:19.657Z,2.30
2022-09-20T21:23:51.327Z,1.80
2022-09-20T21:26:19.783Z,2.47
2022-09-20T21:28:52.039Z,2.17
2022-09-20T21:31:21.632Z,2.10
2022-09-20T21:33:49.349Z,2.10
2022-09-20T21:36:19.773Z,2.00
2022-09-20T21:38:47.555Z,1.93
2022-09-20T21:41:17.695Z,1.90
2022-09-20T21:43:46.862Z,1.87
2022-09-20T21:46:16.317Z,1.90
2022-09-20T21:48:44.179Z,1.73
2022-09-20T21:51:13.761Z,1.80
2022-09-20T21:53:43.084Z,1.90
2022-09-20T21:56:13.549Z,1.90
2022-09-20T21:58:41.628Z,1.70
2022-09-20T22:01:11.843Z,1.90
2022-09-20T22:03:40.927Z,1.70
2022-09-20T22:06:10.711Z,1.90
2022-09-20T22:08:39.382Z,1.80
2022-09-20T22:11:13.430Z,1.73
2022-09-20T22:13:43.452Z,2.10
2022-09-20T22:16:12.841Z,1.50
2022-09-20T22:18:42.406Z,1.77
2022-09-20T22:21:12.843Z,1.83
2022-09-20T22:23:40.881Z,1.67
2022-09-20T22:26:11.893Z,1.70
2022-09-20T22:28:39.903Z,1.73
2022-09-20T22:31:09.522Z,1.60
2022-09-20T22:33:42.609Z,1.57
2022-09-20T22:36:12.515Z,1.87
2022-09-20T22:38:40.290Z,1.80
2022-09-20T22:41:11.795Z,2.07
2022-09-20T22:43:39.887Z,2.10
2022-09-20T22:46:09.187Z,2.23
2022-09-20T22:48:37.425Z,2.17
2022-09-20T22:51:07.179Z,2.13
2022-09-20T22:53:35.821Z,1.63
2022-09-20T22:56:05.971Z,2.20
2022-09-20T22:58:36.185Z,1.70
2022-09-20T23:01:06.260Z,1.60
2022-09-20T23:03:34.049Z,1.80
2022-09-20T23:06:02.931Z,1.90
2022-09-20T23:08:33.572Z,1.97
2022-09-20T23:11:05.814Z,1.60
2022-09-20T23:13:34.965Z,1.90
2022-09-20T23:16:11.943Z,1.70
2022-09-20T23:18:40.058Z,1.93
2022-09-20T23:21:08.205Z,1.40
2022-09-20T23:23:36.581Z,1.90
2022-09-20T23:26:09.186Z,2.37
2022-09-20T23:28:41.291Z,1.70
2022-09-20T23:31:11.223Z,1.33
2022-09-20T23:33:41.515Z,1.70
2022-09-20T23:36:11.568Z,1.37
2022-09-20T23:38:39.341Z,1.40
2022-09-20T23:41:08.551Z,1.90
2022-09-20T23:43:38.239Z,2.30
2022-09-20T23:46:08.339Z,2.40
2022-09-20T23:48:37.044Z,2.30
2022-09-20T23:51:05.575Z,2.43
2022-09-20T23:53:33.889Z,2.10
2022-09-20T23:56:01.897Z,1.87
2022-09-20T23:58:29.563Z,1.77
